sensor_id;sensor_type;location;lat;lon;timestamp;P1;durP1;ratioP1;P2;durP2;ratioP2
26750;SDS011;14345;48.272;25.926;2023-03-11T00:01:06;10.55;;;7.38;;
26750;SDS011;14345;48.272;25.926;2023-03-11T00:03:32;12.80;;;8.55;;
26750;SDS011;14345;48.272;25.926;2023-03-11T00:05:59;12.70;;;9.13;;
26750;SDS011;14345;48.272;25.926;2023-03-11T00:08:25;13.52;;;8.35;;
26750;SDS011;14345;48.272;25.926;2023-03-11T00:10:56;11.95;;;8.18;;
26750;SDS011;14345;48.272;25.926;2023-03-11T00:13:24;10.80;;;8.07;;
26750;SDS011;14345;48.272;25.926;2023-03-11T00:15:51;11.05;;;7.63;;
26750;SDS011;14345;48.272;25.926;2023-03-11T00:18:19;11.40;;;7.13;;
26750;SDS011;14345;48.272;25.926;2023-03-11T00:20:49;13.48;;;7.82;;
26750;SDS011;14345;48.272;25.926;2023-03-11T00:23:15;11.60;;;8.20;;
26750;SDS011;14345;48.272;25.926;2023-03-11T00:25:42;9.93;;;6.82;;
26750;SDS011;14345;48.272;25.926;2023-03-11T00:28:08;15.18;;;8.70;;
26750;SDS011;14345;48.272;25.926;2023-03-11T00:30:35;10.80;;;7.70;;
26750;SDS011;14345;48.272;25.926;2023-03-11T00:33:01;8.15;;;6.70;;
26750;SDS011;14345;48.272;25.926;2023-03-11T00:35:29;10.85;;;8.18;;
26750;SDS011;14345;48.272;25.926;2023-03-11T00:37:56;11.82;;;8.02;;
26750;SDS011;14345;48.272;25.926;2023-03-11T00:40:23;11.68;;;7.80;;
26750;SDS011;14345;48.272;25.926;2023-03-11T00:42:49;12.43;;;8.27;;
26750;SDS011;14345;48.272;25.926;2023-03-11T00:45:16;11.85;;;7.35;;
26750;SDS011;14345;48.272;25.926;2023-03-11T00:47:42;11.15;;;8.13;;
26750;SDS011;14345;48.272;25.926;2023-03-11T00:50:08;9.75;;;7.10;;
26750;SDS011;14345;48.272;25.926;2023-03-11T00:52:36;12.40;;;8.43;;
26750;SDS011;14345;48.272;25.926;2023-03-11T00:55:03;10.40;;;7.88;;
26750;SDS011;14345;48.272;25.926;2023-03-11T00:57:29;11.38;;;8.30;;
26750;SDS011;14345;48.272;25.926;2023-03-11T00:59:55;10.55;;;7.45;;
26750;SDS011;14345;48.272;25.926;2023-03-11T01:02:21;9.20;;;7.25;;
26750;SDS011;14345;48.272;25.926;2023-03-11T01:04:51;10.80;;;6.68;;
26750;SDS011;14345;48.272;25.926;2023-03-11T01:07:17;10.25;;;7.30;;
26750;SDS011;14345;48.272;25.926;2023-03-11T01:09:43;9.90;;;7.32;;
26750;SDS011;14345;48.272;25.926;2023-03-11T01:12:09;9.45;;;7.03;;
26750;SDS011;14345;48.272;25.926;2023-03-11T01:14:35;9.02;;;6.53;;
26750;SDS011;14345;48.272;25.926;2023-03-11T01:17:01;7.18;;;5.80;;
26750;SDS011;14345;48.272;25.926;2023-03-11T01:19:27;9.98;;;7.05;;
26750;SDS011;14345;48.272;25.926;2023-03-11T01:21:53;10.45;;;7.30;;
26750;SDS011;14345;48.272;25.926;2023-03-11T01:24:19;13.45;;;9.25;;
26750;SDS011;14345;48.272;25.926;2023-03-11T01:26:45;12.25;;;8.32;;
26750;SDS011;14345;48.272;25.926;2023-03-11T01:29:11;14.00;;;8.98;;
26750;SDS011;14345;48.272;25.926;2023-03-11T01:31:37;10.10;;;7.55;;
26750;SDS011;14345;48.272;25.926;2023-03-11T01:34:03;18.15;;;8.98;;
26750;SDS011;14345;48.272;25.926;2023-03-11T01:36:29;13.73;;;9.52;;
26750;SDS011;14345;48.272;25.926;2023-03-11T01:38:55;13.98;;;8.90;;
26750;SDS011;14345;48.272;25.926;2023-03-11T01:41:21;16.08;;;9.32;;
26750;SDS011;14345;48.272;25.926;2023-03-11T01:43:49;13.55;;;9.15;;
26750;SDS011;14345;48.272;25.926;2023-03-11T01:48:44;13.95;;;9.55;;
26750;SDS011;14345;48.272;25.926;2023-03-11T01:51:10;11.57;;;8.10;;
26750;SDS011;14345;48.272;25.926;2023-03-11T01:53:36;10.80;;;7.82;;
26750;SDS011;14345;48.272;25.926;2023-03-11T01:56:02;11.60;;;7.90;;
26750;SDS011;14345;48.272;25.926;2023-03-11T01:58:31;11.00;;;8.05;;
26750;SDS011;14345;48.272;25.926;2023-03-11T02:00:58;11.27;;;7.28;;
26750;SDS011;14345;48.272;25.926;2023-03-11T02:03:27;11.82;;;8.23;;
26750;SDS011;14345;48.272;25.926;2023-03-11T02:05:54;11.07;;;7.25;;
26750;SDS011;14345;48.272;25.926;2023-03-11T02:08:21;12.13;;;7.50;;
26750;SDS011;14345;48.272;25.926;2023-03-11T02:10:47;12.48;;;8.63;;
26750;SDS011;14345;48.272;25.926;2023-03-11T02:13:14;13.38;;;8.20;;
26750;SDS011;14345;48.272;25.926;2023-03-11T02:15:40;13.20;;;8.75;;
26750;SDS011;14345;48.272;25.926;2023-03-11T02:18:06;12.07;;;8.25;;
26750;SDS011;14345;48.272;25.926;2023-03-11T02:20:39;11.40;;;7.43;;
26750;SDS011;14345;48.272;25.926;2023-03-11T02:23:08;9.35;;;7.25;;
26750;SDS011;14345;48.272;25.926;2023-03-11T02:28:00;10.60;;;7.32;;
26750;SDS011;14345;48.272;25.926;2023-03-11T02:30:27;13.10;;;8.18;;
26750;SDS011;14345;48.272;25.926;2023-03-11T02:32:53;9.55;;;7.13;;
26750;SDS011;14345;48.272;25.926;2023-03-11T02:35:20;11.05;;;7.63;;
26750;SDS011;14345;48.272;25.926;2023-03-11T02:37:50;11.18;;;7.65;;
26750;SDS011;14345;48.272;25.926;2023-03-11T02:42:42;7.97;;;6.13;;
26750;SDS011;14345;48.272;25.926;2023-03-11T02:45:09;8.85;;;6.25;;
26750;SDS011;14345;48.272;25.926;2023-03-11T02:47:36;12.60;;;7.13;;
26750;SDS011;14345;48.272;25.926;2023-03-11T02:50:03;11.45;;;7.40;;
26750;SDS011;14345;48.272;25.926;2023-03-11T02:52:33;9.25;;;6.63;;
26750;SDS011;14345;48.272;25.926;2023-03-11T02:54:59;9.25;;;5.80;;
26750;SDS011;14345;48.272;25.926;2023-03-11T02:57:25;9.75;;;5.93;;
26750;SDS011;14345;48.272;25.926;2023-03-11T02:59:51;10.18;;;7.18;;
26750;SDS011;14345;48.272;25.926;2023-03-11T03:02:19;9.98;;;7.20;;
26750;SDS011;14345;48.272;25.926;2023-03-11T03:04:45;10.68;;;7.70;;
26750;SDS011;14345;48.272;25.926;2023-03-11T03:07:11;11.40;;;7.97;;
26750;SDS011;14345;48.272;25.926;2023-03-11T03:09:37;10.38;;;7.07;;
26750;SDS011;14345;48.272;25.926;2023-03-11T03:12:03;7.75;;;6.47;;
26750;SDS011;14345;48.272;25.926;2023-03-11T03:14:29;9.23;;;6.72;;
26750;SDS011;14345;48.272;25.926;2023-03-11T03:16:55;9.32;;;6.95;;
26750;SDS011;14345;48.272;25.926;2023-03-11T03:19:21;8.02;;;6.22;;
26750;SDS011;14345;48.272;25.926;2023-03-11T03:21:47;9.52;;;6.65;;
26750;SDS011;14345;48.272;25.926;2023-03-11T03:24:13;9.63;;;6.00;;
26750;SDS011;14345;48.272;25.926;2023-03-11T03:26:40;8.98;;;6.07;;
26750;SDS011;14345;48.272;25.926;2023-03-11T03:29:06;6.75;;;5.32;;
26750;SDS011;14345;48.272;25.926;2023-03-11T03:31:32;7.22;;;5.50;;
26750;SDS011;14345;48.272;25.926;2023-03-11T03:33:58;11.93;;;6.72;;
26750;SDS011;14345;48.272;25.926;2023-03-11T03:36:24;11.57;;;6.03;;
26750;SDS011;14345;48.272;25.926;2023-03-11T03:38:54;9.50;;;5.72;;
26750;SDS011;14345;48.272;25.926;2023-03-11T03:41:20;7.78;;;5.50;;
26750;SDS011;14345;48.272;25.926;2023-03-11T03:43:46;9.32;;;5.38;;
26750;SDS011;14345;48.272;25.926;2023-03-11T03:46:12;9.18;;;5.97;;
26750;SDS011;14345;48.272;25.926;2023-03-11T03:48:38;9.80;;;6.13;;
26750;SDS011;14345;48.272;25.926;2023-03-11T03:51:04;12.07;;;6.70;;
26750;SDS011;14345;48.272;25.926;2023-03-11T03:53:32;11.93;;;6.78;;
26750;SDS011;14345;48.272;25.926;2023-03-11T03:56:01;9.60;;;7.18;;
26750;SDS011;14345;48.272;25.926;2023-03-11T03:58:27;10.95;;;6.50;;
26750;SDS011;14345;48.272;25.926;2023-03-11T04:00:56;9.90;;;6.40;;
26750;SDS011;14345;48.272;25.926;2023-03-11T04:03:23;9.73;;;5.40;;
26750;SDS011;14345;48.272;25.926;2023-03-11T04:05:49;8.07;;;5.53;;
26750;SDS011;14345;48.272;25.926;2023-03-11T04:08:15;6.25;;;5.07;;
26750;SDS011;14345;48.272;25.926;2023-03-11T04:10:41;8.35;;;5.90;;
26750;SDS011;14345;48.272;25.926;2023-03-11T04:13:07;10.27;;;6.72;;
26750;SDS011;14345;48.272;25.926;2023-03-11T04:15:33;9.13;;;6.22;;
26750;SDS011;14345;48.272;25.926;2023-03-11T04:17:59;8.10;;;5.70;;
26750;SDS011;14345;48.272;25.926;2023-03-11T04:20:25;12.27;;;6.25;;
26750;SDS011;14345;48.272;25.926;2023-03-11T04:22:51;10.68;;;7.55;;
26750;SDS011;14345;48.272;25.926;2023-03-11T04:25:17;8.93;;;6.65;;
26750;SDS011;14345;48.272;25.926;2023-03-11T04:27:43;8.15;;;5.95;;
26750;SDS011;14345;48.272;25.926;2023-03-11T04:30:13;8.15;;;6.10;;
26750;SDS011;14345;48.272;25.926;2023-03-11T04:32:39;6.97;;;5.35;;
26750;SDS011;14345;48.272;25.926;2023-03-11T04:35:05;7.18;;;5.15;;
26750;SDS011;14345;48.272;25.926;2023-03-11T04:37:32;9.02;;;5.43;;
26750;SDS011;14345;48.272;25.926;2023-03-11T04:39:58;7.72;;;5.03;;
26750;SDS011;14345;48.272;25.926;2023-03-11T04:42:24;9.05;;;5.43;;
26750;SDS011;14345;48.272;25.926;2023-03-11T04:44:50;6.70;;;5.10;;
26750;SDS011;14345;48.272;25.926;2023-03-11T04:47:16;6.57;;;5.03;;
26750;SDS011;14345;48.272;25.926;2023-03-11T04:49:42;8.93;;;5.30;;
26750;SDS011;14345;48.272;25.926;2023-03-11T04:52:08;9.90;;;5.90;;
26750;SDS011;14345;48.272;25.926;2023-03-11T04:54:34;7.00;;;5.22;;
26750;SDS011;14345;48.272;25.926;2023-03-11T04:57:00;8.57;;;5.90;;
26750;SDS011;14345;48.272;25.926;2023-03-11T04:59:26;6.95;;;5.70;;
26750;SDS011;14345;48.272;25.926;2023-03-11T05:01:52;9.70;;;5.85;;
26750;SDS011;14345;48.272;25.926;2023-03-11T05:04:18;7.72;;;5.35;;
26750;SDS011;14345;48.272;25.926;2023-03-11T05:06:44;8.27;;;5.47;;
26750;SDS011;14345;48.272;25.926;2023-03-11T05:09:10;7.97;;;6.25;;
26750;SDS011;14345;48.272;25.926;2023-03-11T05:11:36;8.93;;;5.90;;
26750;SDS011;14345;48.272;25.926;2023-03-11T05:14:02;8.00;;;4.90;;
26750;SDS011;14345;48.272;25.926;2023-03-11T05:16:28;9.35;;;5.88;;
26750;SDS011;14345;48.272;25.926;2023-03-11T05:18:54;12.50;;;8.20;;
26750;SDS011;14345;48.272;25.926;2023-03-11T05:21:20;9.45;;;7.40;;
26750;SDS011;14345;48.272;25.926;2023-03-11T05:23:46;10.20;;;6.68;;
26750;SDS011;14345;48.272;25.926;2023-03-11T05:26:12;10.38;;;6.63;;
26750;SDS011;14345;48.272;25.926;2023-03-11T05:28:38;9.00;;;6.28;;
26750;SDS011;14345;48.272;25.926;2023-03-11T05:31:08;7.60;;;5.35;;
26750;SDS011;14345;48.272;25.926;2023-03-11T05:33:34;6.43;;;4.68;;
26750;SDS011;14345;48.272;25.926;2023-03-11T05:36:06;5.78;;;4.95;;
26750;SDS011;14345;48.272;25.926;2023-03-11T05:38:34;11.25;;;7.68;;
26750;SDS011;14345;48.272;25.926;2023-03-11T05:41:00;11.38;;;8.10;;
26750;SDS011;14345;48.272;25.926;2023-03-11T05:43:26;14.40;;;7.95;;
26750;SDS011;14345;48.272;25.926;2023-03-11T05:45:52;10.75;;;6.93;;
26750;SDS011;14345;48.272;25.926;2023-03-11T05:48:18;10.60;;;7.20;;
26750;SDS011;14345;48.272;25.926;2023-03-11T05:50:44;7.43;;;5.50;;
26750;SDS011;14345;48.272;25.926;2023-03-11T05:53:10;14.65;;;7.50;;
26750;SDS011;14345;48.272;25.926;2023-03-11T05:55:36;15.95;;;11.68;;
26750;SDS011;14345;48.272;25.926;2023-03-11T05:58:02;16.00;;;9.75;;
26750;SDS011;14345;48.272;25.926;2023-03-11T06:00:28;11.80;;;7.97;;
26750;SDS011;14345;48.272;25.926;2023-03-11T06:02:54;12.60;;;7.80;;
26750;SDS011;14345;48.272;25.926;2023-03-11T06:05:20;12.85;;;8.02;;
26750;SDS011;14345;48.272;25.926;2023-03-11T06:07:46;12.50;;;8.07;;
26750;SDS011;14345;48.272;25.926;2023-03-11T06:10:12;13.25;;;7.85;;
26750;SDS011;14345;48.272;25.926;2023-03-11T06:12:38;11.05;;;6.43;;
26750;SDS011;14345;48.272;25.926;2023-03-11T06:15:05;11.27;;;6.97;;
26750;SDS011;14345;48.272;25.926;2023-03-11T06:17:31;11.45;;;7.70;;
26750;SDS011;14345;48.272;25.926;2023-03-11T06:19:57;9.68;;;7.40;;
26750;SDS011;14345;48.272;25.926;2023-03-11T06:22:23;11.82;;;8.05;;
26750;SDS011;14345;48.272;25.926;2023-03-11T06:24:49;16.20;;;10.50;;
26750;SDS011;14345;48.272;25.926;2023-03-11T06:27:15;16.95;;;10.63;;
26750;SDS011;14345;48.272;25.926;2023-03-11T06:29:41;11.23;;;8.00;;
26750;SDS011;14345;48.272;25.926;2023-03-11T06:32:07;13.13;;;8.27;;
26750;SDS011;14345;48.272;25.926;2023-03-11T06:34:33;11.50;;;8.90;;
26750;SDS011;14345;48.272;25.926;2023-03-11T06:36:59;10.88;;;8.13;;
26750;SDS011;14345;48.272;25.926;2023-03-11T06:39:25;12.38;;;8.15;;
26750;SDS011;14345;48.272;25.926;2023-03-11T06:41:52;12.27;;;8.90;;
26750;SDS011;14345;48.272;25.926;2023-03-11T06:44:18;12.38;;;8.95;;
26750;SDS011;14345;48.272;25.926;2023-03-11T06:46:43;16.02;;;10.00;;
26750;SDS011;14345;48.272;25.926;2023-03-11T06:49:09;19.83;;;14.00;;
26750;SDS011;14345;48.272;25.926;2023-03-11T06:51:35;20.27;;;14.43;;
26750;SDS011;14345;48.272;25.926;2023-03-11T06:54:02;23.08;;;15.00;;
26750;SDS011;14345;48.272;25.926;2023-03-11T06:56:28;23.80;;;17.45;;
26750;SDS011;14345;48.272;25.926;2023-03-11T06:58:54;24.85;;;16.92;;
26750;SDS011;14345;48.272;25.926;2023-03-11T07:01:21;19.42;;;12.27;;
26750;SDS011;14345;48.272;25.926;2023-03-11T07:03:47;17.23;;;9.65;;
26750;SDS011;14345;48.272;25.926;2023-03-11T07:06:14;13.30;;;10.00;;
26750;SDS011;14345;48.272;25.926;2023-03-11T07:08:40;13.15;;;9.90;;
26750;SDS011;14345;48.272;25.926;2023-03-11T07:11:08;15.65;;;10.10;;
26750;SDS011;14345;48.272;25.926;2023-03-11T07:13:35;12.35;;;9.63;;
26750;SDS011;14345;48.272;25.926;2023-03-11T07:16:02;13.07;;;9.75;;
26750;SDS011;14345;48.272;25.926;2023-03-11T07:18:28;12.90;;;9.68;;
26750;SDS011;14345;48.272;25.926;2023-03-11T07:20:55;12.75;;;10.02;;
26750;SDS011;14345;48.272;25.926;2023-03-11T07:23:21;12.25;;;9.80;;
26750;SDS011;14345;48.272;25.926;2023-03-11T07:25:47;15.32;;;11.68;;
26750;SDS011;14345;48.272;25.926;2023-03-11T07:28:13;15.20;;;11.38;;
26750;SDS011;14345;48.272;25.926;2023-03-11T07:30:39;18.05;;;11.07;;
26750;SDS011;14345;48.272;25.926;2023-03-11T07:33:05;14.40;;;11.18;;
26750;SDS011;14345;48.272;25.926;2023-03-11T07:35:31;16.48;;;11.90;;
26750;SDS011;14345;48.272;25.926;2023-03-11T07:37:59;13.68;;;10.43;;
26750;SDS011;14345;48.272;25.926;2023-03-11T07:40:25;13.90;;;9.70;;
26750;SDS011;14345;48.272;25.926;2023-03-11T07:42:51;12.88;;;9.45;;
26750;SDS011;14345;48.272;25.926;2023-03-11T07:45:17;13.77;;;9.32;;
26750;SDS011;14345;48.272;25.926;2023-03-11T07:47:43;11.88;;;8.50;;
26750;SDS011;14345;48.272;25.926;2023-03-11T07:50:09;11.30;;;8.82;;
26750;SDS011;14345;48.272;25.926;2023-03-11T07:52:35;10.80;;;8.05;;
26750;SDS011;14345;48.272;25.926;2023-03-11T07:55:02;12.32;;;8.63;;
26750;SDS011;14345;48.272;25.926;2023-03-11T07:57:28;12.30;;;8.68;;
26750;SDS011;14345;48.272;25.926;2023-03-11T07:59:54;15.52;;;10.55;;
26750;SDS011;14345;48.272;25.926;2023-03-11T08:02:20;12.18;;;8.77;;
26750;SDS011;14345;48.272;25.926;2023-03-11T08:04:46;10.57;;;8.30;;
26750;SDS011;14345;48.272;25.926;2023-03-11T08:07:12;17.90;;;11.90;;
26750;SDS011;14345;48.272;25.926;2023-03-11T08:09:38;18.10;;;12.73;;
26750;SDS011;14345;48.272;25.926;2023-03-11T08:12:04;17.52;;;10.88;;
26750;SDS011;14345;48.272;25.926;2023-03-11T08:14:30;11.00;;;8.55;;
26750;SDS011;14345;48.272;25.926;2023-03-11T08:16:56;13.55;;;9.45;;
26750;SDS011;14345;48.272;25.926;2023-03-11T08:19:22;14.65;;;9.48;;
26750;SDS011;14345;48.272;25.926;2023-03-11T08:21:48;13.95;;;9.07;;
26750;SDS011;14345;48.272;25.926;2023-03-11T08:24:14;12.25;;;9.07;;
26750;SDS011;14345;48.272;25.926;2023-03-11T08:26:40;11.63;;;8.23;;
26750;SDS011;14345;48.272;25.926;2023-03-11T08:29:06;10.65;;;8.20;;
26750;SDS011;14345;48.272;25.926;2023-03-11T08:31:33;12.10;;;8.57;;
26750;SDS011;14345;48.272;25.926;2023-03-11T08:34:00;13.05;;;9.40;;
26750;SDS011;14345;48.272;25.926;2023-03-11T08:36:27;11.77;;;8.82;;
26750;SDS011;14345;48.272;25.926;2023-03-11T08:38:53;11.88;;;8.20;;
26750;SDS011;14345;48.272;25.926;2023-03-11T08:41:19;15.65;;;8.85;;
26750;SDS011;14345;48.272;25.926;2023-03-11T08:43:45;18.85;;;11.60;;
26750;SDS011;14345;48.272;25.926;2023-03-11T08:46:16;19.33;;;12.45;;
26750;SDS011;14345;48.272;25.926;2023-03-11T08:51:11;19.17;;;12.10;;
26750;SDS011;14345;48.272;25.926;2023-03-11T08:53:38;15.65;;;10.82;;
26750;SDS011;14345;48.272;25.926;2023-03-11T08:56:04;14.63;;;9.82;;
26750;SDS011;14345;48.272;25.926;2023-03-11T08:58:30;17.27;;;10.50;;
26750;SDS011;14345;48.272;25.926;2023-03-11T09:00:56;16.67;;;10.60;;
26750;SDS011;14345;48.272;25.926;2023-03-11T09:03:22;16.23;;;9.60;;
26750;SDS011;14345;48.272;25.926;2023-03-11T09:05:48;15.25;;;10.00;;
26750;SDS011;14345;48.272;25.926;2023-03-11T09:08:20;19.48;;;11.27;;
26750;SDS011;14345;48.272;25.926;2023-03-11T09:10:46;15.90;;;10.68;;
26750;SDS011;14345;48.272;25.926;2023-03-11T09:13:12;18.75;;;11.65;;
26750;SDS011;14345;48.272;25.926;2023-03-11T09:15:38;21.90;;;13.68;;
26750;SDS011;14345;48.272;25.926;2023-03-11T09:18:05;19.65;;;12.18;;
26750;SDS011;14345;48.272;25.926;2023-03-11T09:20:33;14.63;;;10.88;;
26750;SDS011;14345;48.272;25.926;2023-03-11T09:22:59;14.27;;;10.13;;
26750;SDS011;14345;48.272;25.926;2023-03-11T09:25:25;17.33;;;10.95;;
26750;SDS011;14345;48.272;25.926;2023-03-11T09:27:51;21.00;;;12.00;;
26750;SDS011;14345;48.272;25.926;2023-03-11T09:30:17;16.00;;;11.23;;
26750;SDS011;14345;48.272;25.926;2023-03-11T09:32:43;15.85;;;10.52;;
26750;SDS011;14345;48.272;25.926;2023-03-11T09:35:09;23.10;;;13.80;;
26750;SDS011;14345;48.272;25.926;2023-03-11T09:37:35;20.73;;;14.38;;
26750;SDS011;14345;48.272;25.926;2023-03-11T09:40:01;20.33;;;15.65;;
26750;SDS011;14345;48.272;25.926;2023-03-11T09:45:16;19.67;;;15.20;;
26750;SDS011;14345;48.272;25.926;2023-03-11T09:52:43;22.65;;;14.93;;
26750;SDS011;14345;48.272;25.926;2023-03-11T09:55:55;21.95;;;14.85;;
26750;SDS011;14345;48.272;25.926;2023-03-11T09:57:56;23.33;;;16.75;;
26750;SDS011;14345;48.272;25.926;2023-03-11T10:00:24;21.35;;;14.65;;
26750;SDS011;14345;48.272;25.926;2023-03-11T10:02:50;19.73;;;14.00;;
26750;SDS011;14345;48.272;25.926;2023-03-11T10:05:21;21.95;;;14.25;;
26750;SDS011;14345;48.272;25.926;2023-03-11T10:07:52;25.45;;;16.38;;
26750;SDS011;14345;48.272;25.926;2023-03-11T10:10:20;27.55;;;19.02;;
26750;SDS011;14345;48.272;25.926;2023-03-11T10:15:47;32.33;;;18.40;;
26750;SDS011;14345;48.272;25.926;2023-03-11T10:28:17;25.77;;;16.35;;
26750;SDS011;14345;48.272;25.926;2023-03-11T10:30:50;27.38;;;14.80;;
26750;SDS011;14345;48.272;25.926;2023-03-11T10:33:23;25.88;;;14.88;;
26750;SDS011;14345;48.272;25.926;2023-03-11T10:35:51;20.50;;;13.32;;
26750;SDS011;14345;48.272;25.926;2023-03-11T10:38:32;19.80;;;12.43;;
26750;SDS011;14345;48.272;25.926;2023-03-11T10:41:00;21.63;;;11.93;;
26750;SDS011;14345;48.272;25.926;2023-03-11T10:43:30;25.65;;;12.30;;
26750;SDS011;14345;48.272;25.926;2023-03-11T10:45:57;22.52;;;13.23;;
26750;SDS011;14345;48.272;25.926;2023-03-11T10:48:24;20.98;;;11.57;;
26750;SDS011;14345;48.272;25.926;2023-03-11T10:51:00;14.43;;;9.13;;
26750;SDS011;14345;48.272;25.926;2023-03-11T10:53:26;16.67;;;9.05;;
26750;SDS011;14345;48.272;25.926;2023-03-11T10:55:53;19.08;;;11.75;;
26750;SDS011;14345;48.272;25.926;2023-03-11T10:58:24;21.42;;;11.50;;
26750;SDS011;14345;48.272;25.926;2023-03-11T11:03:25;20.38;;;10.52;;
26750;SDS011;14345;48.272;25.926;2023-03-11T11:05:56;17.77;;;10.48;;
26750;SDS011;14345;48.272;25.926;2023-03-11T11:08:22;13.55;;;8.48;;
26750;SDS011;14345;48.272;25.926;2023-03-11T11:10:52;14.10;;;9.15;;
26750;SDS011;14345;48.272;25.926;2023-03-11T11:13:20;12.82;;;7.95;;
26750;SDS011;14345;48.272;25.926;2023-03-11T11:15:57;10.73;;;7.07;;
26750;SDS011;14345;48.272;25.926;2023-03-11T11:18:24;11.75;;;7.90;;
26750;SDS011;14345;48.272;25.926;2023-03-11T11:21:02;14.38;;;8.57;;
26750;SDS011;14345;48.272;25.926;2023-03-11T11:23:36;14.40;;;9.15;;
26750;SDS011;14345;48.272;25.926;2023-03-11T11:26:04;17.98;;;11.30;;
26750;SDS011;14345;48.272;25.926;2023-03-11T11:28:31;15.70;;;9.25;;
26750;SDS011;14345;48.272;25.926;2023-03-11T11:31:02;20.80;;;7.18;;
26750;SDS011;14345;48.272;25.926;2023-03-11T11:33:34;9.38;;;6.90;;
26750;SDS011;14345;48.272;25.926;2023-03-11T11:36:03;10.85;;;6.25;;
26750;SDS011;14345;48.272;25.926;2023-03-11T11:38:31;6.80;;;4.65;;
26750;SDS011;14345;48.272;25.926;2023-03-11T11:40:58;10.07;;;6.03;;
26750;SDS011;14345;48.272;25.926;2023-03-11T11:43:35;10.25;;;5.90;;
26750;SDS011;14345;48.272;25.926;2023-03-11T11:46:05;14.68;;;6.40;;
26750;SDS011;14345;48.272;25.926;2023-03-11T11:48:39;9.82;;;6.35;;
26750;SDS011;14345;48.272;25.926;2023-03-11T11:51:12;12.57;;;6.10;;
26750;SDS011;14345;48.272;25.926;2023-03-11T11:53:43;11.13;;;6.53;;
26750;SDS011;14345;48.272;25.926;2023-03-11T11:56:10;11.93;;;6.95;;
26750;SDS011;14345;48.272;25.926;2023-03-11T11:58:36;11.82;;;6.45;;
26750;SDS011;14345;48.272;25.926;2023-03-11T12:03:55;10.00;;;6.20;;
26750;SDS011;14345;48.272;25.926;2023-03-11T12:06:30;10.65;;;6.05;;
26750;SDS011;14345;48.272;25.926;2023-03-11T12:17:02;12.75;;;7.32;;
26750;SDS011;14345;48.272;25.926;2023-03-11T12:19:47;11.35;;;7.22;;
26750;SDS011;14345;48.272;25.926;2023-03-11T12:27:29;14.27;;;9.10;;
26750;SDS011;14345;48.272;25.926;2023-03-11T12:29:57;12.73;;;8.63;;
26750;SDS011;14345;48.272;25.926;2023-03-11T12:32:31;9.45;;;6.43;;
26750;SDS011;14345;48.272;25.926;2023-03-11T12:37:42;14.18;;;7.50;;
26750;SDS011;14345;48.272;25.926;2023-03-11T12:42:53;12.60;;;7.57;;
26750;SDS011;14345;48.272;25.926;2023-03-11T12:48:23;12.95;;;7.10;;
26750;SDS011;14345;48.272;25.926;2023-03-11T12:50:49;13.23;;;7.03;;
26750;SDS011;14345;48.272;25.926;2023-03-11T12:53:16;9.95;;;6.05;;
26750;SDS011;14345;48.272;25.926;2023-03-11T12:55:54;11.25;;;5.68;;
26750;SDS011;14345;48.272;25.926;2023-03-11T13:06:55;14.93;;;6.50;;
26750;SDS011;14345;48.272;25.926;2023-03-11T13:09:27;14.75;;;8.63;;
26750;SDS011;14345;48.272;25.926;2023-03-11T13:11:53;12.82;;;6.97;;
26750;SDS011;14345;48.272;25.926;2023-03-11T13:16:45;11.15;;;6.15;;
26750;SDS011;14345;48.272;25.926;2023-03-11T13:21:53;15.07;;;8.05;;
26750;SDS011;14345;48.272;25.926;2023-03-11T13:26:56;14.82;;;8.20;;
26750;SDS011;14345;48.272;25.926;2023-03-11T13:31:58;9.48;;;6.03;;
26750;SDS011;14345;48.272;25.926;2023-03-11T13:40:36;14.75;;;7.32;;
26750;SDS011;14345;48.272;25.926;2023-03-11T13:43:04;13.57;;;8.50;;
26750;SDS011;14345;48.272;25.926;2023-03-11T13:45:34;13.43;;;7.13;;
26750;SDS011;14345;48.272;25.926;2023-03-11T13:48:02;10.70;;;5.90;;
26750;SDS011;14345;48.272;25.926;2023-03-11T13:50:31;10.52;;;6.85;;
26750;SDS011;14345;48.272;25.926;2023-03-11T13:53:00;12.32;;;7.15;;
26750;SDS011;14345;48.272;25.926;2023-03-11T13:55:33;11.20;;;6.75;;
26750;SDS011;14345;48.272;25.926;2023-03-11T13:58:00;14.35;;;8.05;;
26750;SDS011;14345;48.272;25.926;2023-03-11T14:00:28;12.70;;;7.85;;
26750;SDS011;14345;48.272;25.926;2023-03-11T14:02:55;13.50;;;7.57;;
26750;SDS011;14345;48.272;25.926;2023-03-11T14:05:25;11.85;;;7.32;;
26750;SDS011;14345;48.272;25.926;2023-03-11T14:07:52;12.50;;;7.00;;
26750;SDS011;14345;48.272;25.926;2023-03-11T14:10:19;11.68;;;7.07;;
26750;SDS011;14345;48.272;25.926;2023-03-11T14:12:45;12.63;;;7.22;;
26750;SDS011;14345;48.272;25.926;2023-03-11T14:15:19;11.88;;;7.05;;
26750;SDS011;14345;48.272;25.926;2023-03-11T14:17:46;9.77;;;7.05;;
26750;SDS011;14345;48.272;25.926;2023-03-11T14:22:44;13.75;;;8.60;;
26750;SDS011;14345;48.272;25.926;2023-03-11T14:25:27;16.92;;;10.85;;
26750;SDS011;14345;48.272;25.926;2023-03-11T14:28:00;35.63;;;19.55;;
26750;SDS011;14345;48.272;25.926;2023-03-11T14:30:31;36.33;;;18.40;;
26750;SDS011;14345;48.272;25.926;2023-03-11T14:33:00;28.95;;;15.73;;
26750;SDS011;14345;48.272;25.926;2023-03-11T14:35:26;20.10;;;12.82;;
26750;SDS011;14345;48.272;25.926;2023-03-11T14:37:53;27.15;;;15.57;;
26750;SDS011;14345;48.272;25.926;2023-03-11T14:40:29;24.45;;;15.75;;
26750;SDS011;14345;48.272;25.926;2023-03-11T14:42:57;19.55;;;12.82;;
26750;SDS011;14345;48.272;25.926;2023-03-11T14:45:24;16.08;;;10.50;;
26750;SDS011;14345;48.272;25.926;2023-03-11T14:47:57;15.55;;;10.60;;
26750;SDS011;14345;48.272;25.926;2023-03-11T14:50:26;14.98;;;8.57;;
26750;SDS011;14345;48.272;25.926;2023-03-11T14:52:57;13.10;;;8.02;;
26750;SDS011;14345;48.272;25.926;2023-03-11T14:57:56;10.60;;;5.95;;
26750;SDS011;14345;48.272;25.926;2023-03-11T15:00:25;8.13;;;5.47;;
26750;SDS011;14345;48.272;25.926;2023-03-11T15:05:53;6.95;;;4.53;;
26750;SDS011;14345;48.272;25.926;2023-03-11T15:08:21;7.10;;;3.67;;
26750;SDS011;14345;48.272;25.926;2023-03-11T15:13:26;7.68;;;3.65;;
26750;SDS011;14345;48.272;25.926;2023-03-11T15:15:55;5.22;;;3.40;;
26750;SDS011;14345;48.272;25.926;2023-03-11T15:18:23;6.82;;;4.22;;
26750;SDS011;14345;48.272;25.926;2023-03-11T15:23:31;9.00;;;4.55;;
26750;SDS011;14345;48.272;25.926;2023-03-11T15:25:58;9.68;;;4.47;;
26750;SDS011;14345;48.272;25.926;2023-03-11T15:28:28;7.65;;;4.35;;
26750;SDS011;14345;48.272;25.926;2023-03-11T15:33:39;8.60;;;3.95;;
26750;SDS011;14345;48.272;25.926;2023-03-11T15:36:25;7.10;;;3.45;;
26750;SDS011;14345;48.272;25.926;2023-03-11T15:41:37;16.13;;;2.13;;
26750;SDS011;14345;48.272;25.926;2023-03-11T15:44:03;3.58;;;1.95;;
26750;SDS011;14345;48.272;25.926;2023-03-11T15:46:32;2.53;;;1.77;;
26750;SDS011;14345;48.272;25.926;2023-03-11T15:48:58;5.07;;;2.00;;
26750;SDS011;14345;48.272;25.926;2023-03-11T15:51:24;4.40;;;2.42;;
26750;SDS011;14345;48.272;25.926;2023-03-11T15:53:50;5.28;;;2.70;;
26750;SDS011;14345;48.272;25.926;2023-03-11T15:56:22;7.72;;;3.17;;
26750;SDS011;14345;48.272;25.926;2023-03-11T15:58:48;6.95;;;3.08;;
26750;SDS011;14345;48.272;25.926;2023-03-11T16:01:14;7.18;;;3.85;;
26750;SDS011;14345;48.272;25.926;2023-03-11T16:03:42;7.20;;;2.75;;